createdAt,value
2016-05-01T00:00:44.872Z,0
2016-05-01T00:01:45.453Z,0
2016-05-01T00:02:45.033Z,0
2016-05-01T00:03:45.098Z,0
2016-05-01T00:04:45.163Z,0
2016-05-01T00:05:48.433Z,0
2016-05-01T00:06:45.217Z,0
2016-05-01T00:07:44.718Z,0
2016-05-01T00:08:45.159Z,0
2016-05-01T00:09:45.177Z,0
2016-05-01T00:10:44.836Z,0
2016-05-01T00:11:45.152Z,0
2016-05-01T00:12:44.872Z,0
2016-05-01T00:13:44.844Z,0
2016-05-01T00:14:45.003Z,0
2016-05-01T00:15:45.162Z,0
2016-05-01T00:16:45.149Z,0
2016-05-01T00:17:45.246Z,0
2016-05-01T00:18:45.138Z,0
2016-05-01T00:19:45.016Z,0
2016-05-01T00:20:45.754Z,0
2016-05-01T00:21:45.568Z,0
2016-05-01T00:22:45.337Z,0
2016-05-01T00:23:48.151Z,0
2016-05-01T00:24:45.264Z,0
2016-05-01T00:25:51.329Z,0
2016-05-01T00:26:45.004Z,0
2016-05-01T00:27:45.256Z,0
2016-05-01T00:28:45.244Z,0
2016-05-01T00:29:45.200Z,0
2016-05-01T00:30:45.359Z,0
2016-05-01T00:31:48.440Z,0
2016-05-01T00:32:51.567Z,0
2016-05-01T00:33:45.429Z,0
2016-05-01T00:34:45.354Z,0
2016-05-01T00:35:45.200Z,0
2016-05-01T00:36:45.109Z,0
2016-05-01T00:37:45.064Z,0
2016-05-01T00:38:44.942Z,0
2016-05-01T00:39:45.617Z,0
2016-05-01T00:40:44.964Z,0
2016-05-01T00:41:45.091Z,0
2016-05-01T00:42:44.969Z,0
2016-05-01T00:43:44.972Z,0
2016-05-01T00:44:44.943Z,0
2016-05-01T00:45:45.071Z,0
2016-05-01T00:46:45.073Z,0
2016-05-01T00:47:44.936Z,0
2016-05-01T00:48:45.094Z,0
2016-05-01T00:49:45.081Z,0
2016-05-01T00:50:45.412Z,0
2016-05-01T00:51:45.087Z,0
2016-05-01T00:52:45.090Z,0
2016-05-01T00:53:44.937Z,0
2016-05-01T00:54:45.064Z,0
2016-05-01T00:55:44.926Z,0
2016-05-01T00:56:45.085Z,0
2016-05-01T00:57:45.057Z,0
2016-05-01T00:58:44.778Z,0
2016-05-01T00:59:45.062Z,0
2016-05-01T01:00:45.048Z,0
2016-05-01T01:01:44.942Z,0
2016-05-01T01:02:45.070Z,0
2016-05-01T01:03:45.103Z,0
2016-05-01T01:04:44.919Z,0
2016-05-01T01:05:45.046Z,0
2016-05-01T01:06:47.892Z,0
2016-05-01T01:07:45.067Z,0
2016-05-01T01:08:45.039Z,0
2016-05-01T01:09:44.916Z,0
2016-05-01T01:10:44.903Z,0
2016-05-01T01:11:44.891Z,0
2016-05-01T01:12:44.908Z,0
2016-05-01T01:13:45.069Z,0
2016-05-01T01:14:45.051Z,0
2016-05-01T01:15:45.070Z,0
2016-05-01T01:16:44.900Z,0
2016-05-01T01:17:44.887Z,0
2016-05-01T01:18:45.047Z,0
2016-05-01T01:19:44.753Z,0
2016-05-01T01:20:45.177Z,0
2016-05-01T01:21:45.023Z,0
2016-05-01T01:22:45.042Z,0
2016-05-01T01:23:45.044Z,0
2016-05-01T01:24:45.000Z,0
2016-05-01T01:25:45.033Z,0
2016-05-01T01:26:45.052Z,0
2016-05-01T01:27:44.867Z,0
2016-05-01T01:28:45.010Z,0
2016-05-01T01:29:44.842Z,0
2016-05-01T01:30:44.750Z,0
2016-05-01T01:31:45.002Z,0
2016-05-01T01:32:44.990Z,0
2016-05-01T01:33:44.993Z,0
2016-05-01T01:34:44.871Z,0
2016-05-01T01:35:44.858Z,0
2016-05-01T01:36:45.033Z,0
2016-05-01T01:37:44.972Z,0
2016-05-01T01:38:45.007Z,0
2016-05-01T01:39:44.853Z,0
2016-05-01T01:40:45.012Z,0
2016-05-01T01:41:44.874Z,0
2016-05-01T01:42:45.032Z,0
2016-05-01T01:43:44.832Z,0
2016-05-01T01:44:45.006Z,0
2016-05-01T01:45:44.869Z,0
2016-05-01T01:46:44.856Z,0
2016-05-01T01:47:44.812Z,0
2016-05-01T01:48:44.845Z,0
2016-05-01T01:49:44.958Z,0
2016-05-01T01:50:46.148Z,0
2016-05-01T01:51:44.853Z,0
2016-05-01T01:52:44.700Z,0
2016-05-01T01:53:44.952Z,0
2016-05-01T01:54:44.847Z,0
2016-05-01T01:55:44.990Z,0
2016-05-01T01:56:44.961Z,0
2016-05-01T01:57:44.666Z,0
2016-05-01T01:58:44.997Z,0
2016-05-01T01:59:44.969Z,0
2016-05-01T02:00:45.128Z,0
2016-05-01T02:01:44.958Z,0
2016-05-01T02:02:44.805Z,0
2016-05-01T02:03:44.824Z,0
2016-05-01T02:04:44.810Z,0
2016-05-01T02:05:45.094Z,0
2016-05-01T02:06:44.487Z,0
2016-05-01T02:07:44.959Z,0
2016-05-01T02:08:44.931Z,0
2016-05-01T02:09:44.637Z,0
2016-05-01T02:10:44.779Z,0
2016-05-01T02:11:44.815Z,0
2016-05-01T02:12:44.800Z,0
2016-05-01T02:13:44.787Z,0
2016-05-01T02:14:44.979Z,0
2016-05-01T02:15:44.918Z,0
2016-05-01T02:16:44.921Z,0
2016-05-01T02:17:44.940Z,0
2016-05-01T02:18:44.942Z,0
2016-05-01T02:19:44.961Z,0
2016-05-01T02:20:45.917Z,0
2016-05-01T02:21:44.934Z,0
2016-05-01T02:22:44.781Z,0
2016-05-01T02:23:44.956Z,0
2016-05-01T02:24:44.755Z,0
2016-05-01T02:25:44.633Z,0
2016-05-01T02:26:44.932Z,0
2016-05-01T02:27:44.919Z,0
2016-05-01T02:28:44.594Z,0
2016-05-01T02:29:44.924Z,0
2016-05-01T02:30:44.880Z,0
2016-05-01T02:31:44.743Z,0
2016-05-01T02:32:44.605Z,0
2016-05-01T02:33:44.623Z,0
2016-05-01T02:34:44.891Z,0
2016-05-01T02:35:44.925Z,0
2016-05-01T02:36:44.927Z,0
2016-05-01T02:37:44.899Z,0
2016-05-01T02:38:44.715Z,0
2016-05-01T02:39:44.983Z,0
2016-05-01T02:40:44.735Z,0
2016-05-01T02:41:44.879Z,0
2016-05-01T02:42:44.710Z,0
2016-05-01T02:43:44.868Z,0
2016-05-01T02:44:44.856Z,0
2016-05-01T02:45:44.873Z,0
2016-05-01T02:46:44.876Z,0
2016-05-01T02:47:44.848Z,0
2016-05-01T02:48:44.850Z,0
2016-05-01T02:49:44.900Z,0
2016-05-01T02:50:44.825Z,0
2016-05-01T02:51:44.859Z,0
2016-05-01T02:52:44.862Z,0
2016-05-01T02:53:44.880Z,0
2016-05-01T02:54:44.508Z,0
2016-05-01T02:55:44.713Z,0
2016-05-01T02:56:44.904Z,0
2016-05-01T02:57:44.859Z,0
2016-05-01T02:58:44.847Z,0
2016-05-01T02:59:44.849Z,0
2016-05-01T03:00:44.680Z,0
2016-05-01T03:01:44.839Z,0
2016-05-01T03:02:44.701Z,0
2016-05-01T03:03:44.844Z,0
2016-05-01T03:04:44.831Z,0
2016-05-01T03:05:44.880Z,0
2016-05-01T03:06:44.633Z,0
2016-05-01T03:07:45.120Z,0
2016-05-01T03:08:44.826Z,0
2016-05-01T03:09:44.860Z,0
2016-05-01T03:10:44.816Z,0
2016-05-01T03:11:44.804Z,0
2016-05-01T03:12:44.666Z,0
2016-05-01T03:13:44.823Z,0
2016-05-01T03:14:44.796Z,0
2016-05-01T03:15:44.829Z,0
2016-05-01T03:16:44.676Z,0
2016-05-01T03:17:44.804Z,0
2016-05-01T03:18:44.650Z,0
2016-05-01T03:19:44.793Z,0
2016-05-01T03:20:44.796Z,0
2016-05-01T03:21:44.798Z,0
2016-05-01T03:22:44.817Z,0
2016-05-01T03:23:44.804Z,0
2016-05-01T03:24:44.635Z,0
2016-05-01T03:25:44.794Z,0
2016-05-01T03:26:47.797Z,0
2016-05-01T03:27:44.784Z,0
2016-05-01T03:28:44.989Z,0
2016-05-01T03:29:44.820Z,0
2016-05-01T03:30:44.761Z,0
2016-05-01T03:31:44.608Z,0
2016-05-01T03:32:44.625Z,0
2016-05-01T03:33:44.597Z,0
2016-05-01T03:34:44.756Z,0
2016-05-01T03:35:44.774Z,0
2016-05-01T03:36:44.574Z,0
2016-05-01T03:37:44.749Z,0
2016-05-01T03:38:44.594Z,0
2016-05-01T03:39:44.566Z,0
2016-05-01T03:40:44.554Z,0
2016-05-01T03:41:44.743Z,0
2016-05-01T03:42:44.621Z,0
2016-05-01T03:43:44.546Z,0
2016-05-01T03:44:44.704Z,0
2016-05-01T03:45:44.738Z,0
2016-05-01T03:46:44.726Z,0
2016-05-01T03:47:44.728Z,0
2016-05-01T03:48:44.418Z,0
2016-05-01T03:49:44.545Z,0
2016-05-01T03:50:44.626Z,0
2016-05-01T03:51:44.395Z,0
2016-05-01T03:52:44.679Z,0
2016-05-01T03:53:44.682Z,0
2016-05-01T03:54:44.560Z,0
2016-05-01T03:55:44.531Z,0
2016-05-01T03:56:44.518Z,0
2016-05-01T03:57:45.037Z,0
2016-05-01T03:58:44.695Z,0
2016-05-01T03:59:44.511Z,0
2016-05-01T04:00:44.716Z,0
2016-05-01T04:01:44.516Z,0
2016-05-01T04:02:44.503Z,0
2016-05-01T04:03:44.521Z,0
2016-05-01T04:04:44.649Z,0
2016-05-01T04:05:44.776Z,0
2016-05-01T04:06:44.498Z,0
2016-05-01T04:07:44.344Z,0
2016-05-01T04:08:44.644Z,0
2016-05-01T04:09:44.490Z,0
2016-05-01T04:10:44.493Z,0
2016-05-01T04:11:44.652Z,0
2016-05-01T04:12:44.483Z,0
2016-05-01T04:13:44.627Z,0
2016-05-01T04:14:44.629Z,0
2016-05-01T04:15:44.648Z,0
2016-05-01T04:16:44.634Z,5
2016-05-01T04:17:44.653Z,5
2016-05-01T04:18:44.624Z,5
2016-05-01T04:19:44.611Z,5
2016-05-01T04:20:44.864Z,5
2016-05-01T04:21:44.476Z,5
2016-05-01T04:22:44.728Z,5
2016-05-01T04:23:44.497Z,5
2016-05-01T04:24:44.608Z,5
2016-05-01T04:25:44.486Z,5
2016-05-01T04:26:44.458Z,10
2016-05-01T04:27:44.461Z,10
2016-05-01T04:28:44.308Z,10
2016-05-01T04:29:44.482Z,10
2016-05-01T04:30:44.594Z,10
2016-05-01T04:31:44.425Z,10
2016-05-01T04:32:44.615Z,15
2016-05-01T04:33:44.430Z,15
2016-05-01T04:34:44.417Z,15
2016-05-01T04:35:44.748Z,15
2016-05-01T04:36:44.563Z,15
2016-05-01T04:37:44.285Z,20
2016-05-01T04:38:44.724Z,20
2016-05-01T04:39:44.430Z,25
2016-05-01T04:40:44.558Z,25
2016-05-01T04:41:44.576Z,25
2016-05-01T04:42:44.563Z,25
2016-05-01T04:43:44.426Z,25
2016-05-01T04:44:44.537Z,30
2016-05-01T04:45:44.571Z,30
2016-05-01T04:46:44.559Z,30
2016-05-01T04:47:44.405Z,30
2016-05-01T04:48:44.393Z,30
2016-05-01T04:49:44.536Z,35
2016-05-01T04:50:45.444Z,35
2016-05-01T04:51:44.541Z,35
2016-05-01T04:52:44.543Z,35
2016-05-01T04:53:44.500Z,35
2016-05-01T04:54:44.393Z,35
2016-05-01T04:55:44.411Z,35
2016-05-01T04:56:44.492Z,35
2016-05-01T04:57:44.541Z,35
2016-05-01T04:58:44.513Z,35
2016-05-01T04:59:44.531Z,40
2016-05-01T05:00:44.361Z,45
2016-05-01T05:01:44.505Z,45
2016-05-01T05:02:44.508Z,45
2016-05-01T05:03:44.527Z,45
2016-05-01T05:04:44.686Z,50
2016-05-01T05:05:45.032Z,50
2016-05-01T05:06:44.472Z,55
2016-05-01T05:07:44.491Z,60
2016-05-01T05:08:44.337Z,60
2016-05-01T05:09:44.355Z,65
2016-05-01T05:10:44.327Z,70
2016-05-01T05:11:44.516Z,70
2016-05-01T05:12:44.488Z,75
2016-05-01T05:13:44.460Z,75
2016-05-01T05:14:44.321Z,75
2016-05-01T05:15:44.496Z,80
2016-05-01T05:16:44.343Z,80
2016-05-01T05:17:44.298Z,80
2016-05-01T05:18:44.457Z,85
2016-05-01T05:19:44.444Z,85
2016-05-01T05:20:45.634Z,85
2016-05-01T05:21:44.434Z,85
2016-05-01T05:22:44.312Z,90
2016-05-01T05:23:44.315Z,90
2016-05-01T05:24:44.443Z,90
2016-05-01T05:25:44.444Z,95
2016-05-01T05:26:44.432Z,100
2016-05-01T05:27:44.435Z,100
2016-05-01T05:28:44.265Z,105
2016-05-01T05:29:44.268Z,105
2016-05-01T05:30:44.411Z,105
2016-05-01T05:31:44.430Z,105
2016-05-01T05:32:44.276Z,105
2016-05-01T05:33:44.435Z,105
2016-05-01T05:34:44.422Z,105
2016-05-01T05:35:45.034Z,105
2016-05-01T05:36:44.427Z,100
2016-05-01T05:37:44.415Z,100
2016-05-01T05:38:44.277Z,95
2016-05-01T05:39:44.513Z,95
2016-05-01T05:40:43.938Z,95
2016-05-01T05:41:44.394Z,100
2016-05-01T05:42:44.412Z,100
2016-05-01T05:43:44.088Z,95
2016-05-01T05:44:44.418Z,95
2016-05-01T05:45:44.421Z,95
2016-05-01T05:46:44.393Z,95
2016-05-01T05:47:44.379Z,95
2016-05-01T05:48:44.241Z,95
2016-05-01T05:49:44.401Z,90
2016-05-01T05:50:44.513Z,90
2016-05-01T05:51:44.202Z,90
2016-05-01T05:52:44.080Z,95
2016-05-01T05:53:44.379Z,100
2016-05-01T05:54:44.070Z,100
2016-05-01T05:55:44.385Z,105
2016-05-01T05:56:44.372Z,105
2016-05-01T05:57:44.375Z,105
2016-05-01T05:58:44.220Z,105
2016-05-01T05:59:44.364Z,110
2016-05-01T06:00:44.226Z,110
2016-05-01T06:01:44.369Z,110
2016-05-01T06:02:44.356Z,115
2016-05-01T06:03:44.375Z,110
2016-05-01T06:04:44.347Z,110
2016-05-01T06:05:44.584Z,115
2016-05-01T06:06:44.352Z,115
2016-05-01T06:07:44.354Z,120
2016-05-01T06:08:44.202Z,125
2016-05-01T06:09:44.220Z,130
2016-05-01T06:10:44.404Z,135
2016-05-01T06:11:44.209Z,135
2016-05-01T06:12:44.919Z,140
2016-05-01T06:13:44.372Z,145
2016-05-01T06:14:44.344Z,145
2016-05-01T06:15:44.314Z,150
2016-05-01T06:16:44.020Z,150
2016-05-01T06:17:44.351Z,150
2016-05-01T06:18:44.322Z,155
2016-05-01T06:19:44.325Z,145
2016-05-01T06:20:44.078Z,145
2016-05-01T06:21:44.174Z,145
2016-05-01T06:22:44.302Z,145
2016-05-01T06:23:44.368Z,150
2016-05-01T06:24:44.152Z,150
2016-05-01T06:25:44.310Z,155
2016-05-01T06:26:44.313Z,155
2016-05-01T06:27:44.315Z,165
2016-05-01T06:28:44.177Z,160
2016-05-01T06:29:44.321Z,165
2016-05-01T06:30:44.151Z,165
2016-05-01T06:31:44.311Z,170
2016-05-01T06:32:44.313Z,170
2016-05-01T06:33:44.144Z,175
2016-05-01T06:34:44.304Z,165
2016-05-01T06:35:45.728Z,165
2016-05-01T06:36:44.184Z,170
2016-05-01T06:37:43.999Z,165
2016-05-01T06:38:44.001Z,165
2016-05-01T06:39:44.161Z,165
2016-05-01T06:40:44.304Z,165
2016-05-01T06:41:44.292Z,170
2016-05-01T06:42:44.137Z,170
2016-05-01T06:43:44.140Z,165
2016-05-01T06:44:44.142Z,165
2016-05-01T06:45:43.880Z,160
2016-05-01T06:46:43.992Z,160
2016-05-01T06:47:43.853Z,150
2016-05-01T06:48:44.310Z,155
2016-05-01T06:49:44.297Z,160
2016-05-01T06:50:43.875Z,165
2016-05-01T06:51:44.356Z,165
2016-05-01T06:52:44.402Z,170
2016-05-01T06:53:44.447Z,175
2016-05-01T06:54:44.367Z,175
2016-05-01T06:55:44.380Z,185
2016-05-01T06:56:44.538Z,200
2016-05-01T06:57:44.541Z,210
2016-05-01T06:58:44.559Z,215
2016-05-01T06:59:44.562Z,215
2016-05-01T07:00:44.416Z,225
2016-05-01T07:01:44.300Z,225
2016-05-01T07:02:44.276Z,210
2016-05-01T07:03:44.613Z,200
2016-05-01T07:04:44.636Z,195
2016-05-01T07:05:44.580Z,200
2016-05-01T07:06:44.599Z,195
2016-05-01T07:07:44.448Z,205
2016-05-01T07:08:44.453Z,210
2016-05-01T07:09:44.426Z,225
2016-05-01T07:10:44.634Z,220
2016-05-01T07:11:44.464Z,220
2016-05-01T07:12:44.625Z,220
2016-05-01T07:13:44.315Z,215
2016-05-01T07:14:44.460Z,220
2016-05-01T07:15:44.634Z,215
2016-05-01T07:16:44.482Z,220
2016-05-01T07:17:44.484Z,215
2016-05-01T07:18:44.613Z,210
2016-05-01T07:19:44.600Z,210
2016-05-01T07:20:45.744Z,210
2016-05-01T07:21:44.621Z,215
2016-05-01T07:22:44.624Z,220
2016-05-01T07:23:44.658Z,220
2016-05-01T07:24:44.614Z,210
2016-05-01T07:25:44.617Z,205
2016-05-01T07:26:44.603Z,210
2016-05-01T07:27:44.653Z,225
2016-05-01T07:28:44.484Z,230
2016-05-01T07:29:44.628Z,235
2016-05-01T07:30:44.614Z,235
2016-05-01T07:31:44.476Z,250
2016-05-01T07:32:44.448Z,255
2016-05-01T07:33:44.654Z,270
2016-05-01T07:34:44.469Z,290
2016-05-01T07:35:44.472Z,265
2016-05-01T07:36:44.614Z,270
2016-05-01T07:37:44.650Z,275
2016-05-01T07:38:44.636Z,270
2016-05-01T07:39:44.450Z,260
2016-05-01T07:40:44.610Z,255
2016-05-01T07:41:44.613Z,275
2016-05-01T07:42:44.631Z,280
2016-05-01T07:43:44.649Z,280
2016-05-01T07:44:44.324Z,280
2016-05-01T07:45:44.327Z,290
2016-05-01T07:46:44.627Z,300
2016-05-01T07:47:44.472Z,300
2016-05-01T07:48:44.600Z,295
2016-05-01T07:49:44.477Z,290
2016-05-01T07:50:44.527Z,290
2016-05-01T07:51:44.343Z,280
2016-05-01T07:52:44.454Z,275
2016-05-01T07:53:44.457Z,270
2016-05-01T07:54:44.632Z,270
2016-05-01T07:55:44.635Z,270
2016-05-01T07:56:44.637Z,285
2016-05-01T07:57:44.468Z,265
2016-05-01T07:58:44.471Z,280
2016-05-01T07:59:44.755Z,295
2016-05-01T08:00:44.492Z,300
2016-05-01T08:01:44.464Z,295
2016-05-01T08:02:44.512Z,310
2016-05-01T08:03:44.625Z,290
2016-05-01T08:04:44.502Z,305
2016-05-01T08:05:46.209Z,320
2016-05-01T08:06:44.648Z,305
2016-05-01T08:07:44.494Z,320
2016-05-01T08:08:44.686Z,310
2016-05-01T08:09:44.642Z,320
2016-05-01T08:10:44.691Z,310
2016-05-01T08:11:44.522Z,305
2016-05-01T08:12:44.352Z,320
2016-05-01T08:13:44.667Z,305
2016-05-01T08:14:44.669Z,310
2016-05-01T08:15:44.376Z,345
2016-05-01T08:16:44.535Z,335
2016-05-01T08:17:44.553Z,300
2016-05-01T08:18:44.665Z,295
2016-05-01T08:19:44.668Z,310
2016-05-01T08:20:45.249Z,300
2016-05-01T08:21:44.689Z,295
2016-05-01T08:22:44.677Z,295
2016-05-01T08:23:44.694Z,295
2016-05-01T08:24:44.681Z,300
2016-05-01T08:25:44.699Z,290
2016-05-01T08:26:44.702Z,285
2016-05-01T08:27:44.564Z,300
2016-05-01T08:28:44.583Z,300
2016-05-01T08:29:44.696Z,300
2016-05-01T08:30:44.745Z,305
2016-05-01T08:31:44.544Z,300
2016-05-01T08:32:44.719Z,300
2016-05-01T08:33:44.581Z,315
2016-05-01T08:34:44.724Z,320
2016-05-01T08:35:44.993Z,305
2016-05-01T08:36:44.714Z,305
2016-05-01T08:37:44.717Z,300
2016-05-01T08:38:44.720Z,295
2016-05-01T08:39:44.909Z,305
2016-05-01T08:40:44.724Z,315
2016-05-01T08:41:44.728Z,305
2016-05-01T08:42:44.745Z,305
2016-05-01T08:43:44.747Z,315
2016-05-01T08:44:44.750Z,345
2016-05-01T08:45:44.738Z,335
2016-05-01T08:46:44.756Z,340
2016-05-01T08:47:44.588Z,315
2016-05-01T08:48:44.605Z,320
2016-05-01T08:49:44.780Z,320
2016-05-01T08:50:45.563Z,305
2016-05-01T08:51:44.754Z,310
2016-05-01T08:52:44.788Z,345
2016-05-01T08:53:44.634Z,315
2016-05-01T08:54:44.763Z,305
2016-05-01T08:55:44.859Z,285
2016-05-01T08:56:44.845Z,280
2016-05-01T08:57:44.630Z,300
2016-05-01T08:58:44.773Z,280
2016-05-01T08:59:44.776Z,280
2016-05-01T09:00:44.810Z,290
2016-05-01T09:01:44.640Z,310
2016-05-01T09:02:44.814Z,330
2016-05-01T09:03:44.818Z,315
2016-05-01T09:04:44.648Z,310
2016-05-01T09:05:45.214Z,315
2016-05-01T09:06:44.826Z,295
2016-05-01T09:07:44.828Z,285
2016-05-01T09:08:44.659Z,270
2016-05-01T09:09:44.833Z,265
2016-05-01T09:10:44.805Z,270
2016-05-01T09:11:44.808Z,280
2016-05-01T09:12:44.826Z,290
2016-05-01T09:13:44.813Z,290
2016-05-01T09:14:44.816Z,275
2016-05-01T09:15:44.663Z,275
2016-05-01T09:16:44.681Z,285
2016-05-01T09:17:44.824Z,270
2016-05-01T09:18:44.858Z,270
2016-05-01T09:19:44.845Z,270
2016-05-01T09:20:45.067Z,260
2016-05-01T09:21:44.866Z,260
2016-05-01T09:22:44.727Z,275
2016-05-01T09:23:44.938Z,275
2016-05-01T09:24:44.832Z,270
2016-05-01T09:25:44.693Z,270
2016-05-01T09:26:44.697Z,260
2016-05-01T09:27:44.856Z,265
2016-05-01T09:28:44.874Z,265
2016-05-01T09:29:44.862Z,270
2016-05-01T09:30:44.723Z,290
2016-05-01T09:31:44.709Z,295
2016-05-01T09:32:44.729Z,285
2016-05-01T09:33:44.856Z,295
2016-05-01T09:34:44.703Z,310
2016-05-01T09:35:45.315Z,335
2016-05-01T09:36:44.724Z,345
2016-05-01T09:37:44.883Z,355
2016-05-01T09:38:44.573Z,320
2016-05-01T09:39:44.888Z,315
2016-05-01T09:40:44.859Z,310
2016-05-01T09:41:44.861Z,290
2016-05-01T09:42:44.881Z,270
2016-05-01T09:43:44.900Z,250
2016-05-01T09:44:44.870Z,255
2016-05-01T09:45:44.936Z,255
2016-05-01T09:46:44.891Z,265
2016-05-01T09:47:44.941Z,270
2016-05-01T09:48:44.925Z,270
2016-05-01T09:49:44.616Z,265
2016-05-01T09:50:45.308Z,280
2016-05-01T09:51:44.949Z,280
2016-05-01T09:52:44.764Z,280
2016-05-01T09:53:44.924Z,265
2016-05-01T09:54:44.941Z,275
2016-05-01T09:55:44.771Z,220
2016-05-01T09:56:44.807Z,205
2016-05-01T09:57:44.902Z,205
2016-05-01T09:58:44.936Z,205
2016-05-01T09:59:44.783Z,205
2016-05-01T10:00:44.802Z,210
2016-05-01T10:01:44.945Z,210
2016-05-01T10:02:44.948Z,205
2016-05-01T10:03:44.950Z,200
2016-05-01T10:04:44.953Z,190
2016-05-01T10:05:45.549Z,180
2016-05-01T10:06:44.926Z,175
2016-05-01T10:07:44.962Z,165
2016-05-01T10:08:44.948Z,160
2016-05-01T10:09:44.809Z,160
2016-05-01T10:10:44.953Z,165
2016-05-01T10:11:44.972Z,175
2016-05-01T10:12:44.943Z,180
2016-05-01T10:13:44.977Z,180
2016-05-01T10:14:44.510Z,180
2016-05-01T10:15:44.686Z,180
2016-05-01T10:16:44.970Z,180
2016-05-01T10:17:44.988Z,185
2016-05-01T10:18:44.866Z,185
2016-05-01T10:19:44.961Z,180
2016-05-01T10:20:44.855Z,170
2016-05-01T10:21:44.671Z,165
2016-05-01T10:22:44.845Z,155
2016-05-01T10:23:45.020Z,165
2016-05-01T10:24:44.850Z,180
2016-05-01T10:25:44.853Z,180
2016-05-01T10:26:44.871Z,175
2016-05-01T10:27:44.999Z,180
2016-05-01T10:28:44.860Z,185
2016-05-01T10:29:44.879Z,190
2016-05-01T10:30:44.991Z,195
2016-05-01T10:31:44.698Z,200
2016-05-01T10:32:45.013Z,205
2016-05-01T10:33:45.031Z,210
2016-05-01T10:34:44.862Z,205
2016-05-01T10:35:45.458Z,200
2016-05-01T10:36:44.851Z,180
2016-05-01T10:37:44.728Z,175
2016-05-01T10:38:45.013Z,180
2016-05-01T10:39:45.048Z,200
2016-05-01T10:40:44.909Z,230
2016-05-01T10:41:45.067Z,245
2016-05-01T10:42:44.898Z,245
2016-05-01T10:43:44.869Z,245
2016-05-01T10:44:44.717Z,245
2016-05-01T10:45:45.064Z,250
2016-05-01T10:46:45.113Z,260
2016-05-01T10:47:44.569Z,285
2016-05-01T10:48:44.930Z,310
2016-05-01T10:49:45.058Z,325
2016-05-01T10:50:45.310Z,345
2016-05-01T10:51:45.063Z,375
2016-05-01T10:52:45.130Z,405
2016-05-01T10:53:44.897Z,400
2016-05-01T10:54:44.931Z,375
2016-05-01T10:55:45.074Z,355
2016-05-01T10:56:45.108Z,335
2016-05-01T10:57:44.923Z,340
2016-05-01T10:58:46.723Z,335
2016-05-01T10:59:45.194Z,320
2016-05-01T11:00:45.259Z,310
2016-05-01T11:01:45.090Z,305
2016-05-01T11:02:45.218Z,310
2016-05-01T11:03:45.096Z,310
2016-05-01T11:04:45.176Z,320
2016-05-01T11:05:44.992Z,330
2016-05-01T11:06:45.042Z,335
2016-05-01T11:07:45.075Z,335
2016-05-01T11:08:45.234Z,350
2016-05-01T11:09:45.081Z,395
2016-05-01T11:10:45.302Z,400
2016-05-01T11:11:45.008Z,405
2016-05-01T11:12:45.136Z,365
2016-05-01T11:13:45.264Z,295
2016-05-01T11:14:45.000Z,295
2016-05-01T11:15:45.378Z,270
2016-05-01T11:16:45.303Z,265
2016-05-01T11:17:45.242Z,270
2016-05-01T11:18:45.339Z,280
2016-05-01T11:19:45.108Z,280
2016-05-01T11:20:45.298Z,260
2016-05-01T11:21:45.316Z,250
2016-05-01T11:22:44.991Z,255
2016-05-01T11:23:45.306Z,275
2016-05-01T11:24:45.293Z,290
2016-05-01T11:25:45.358Z,275
2016-05-01T11:26:45.361Z,270
2016-05-01T11:27:45.223Z,270
2016-05-01T11:28:45.397Z,275
2016-05-01T11:29:45.291Z,275
2016-05-01T11:30:45.357Z,300
2016-05-01T11:31:44.968Z,300
2016-05-01T11:32:45.393Z,320
2016-05-01T11:33:45.301Z,330
2016-05-01T11:34:45.335Z,345
2016-05-01T11:35:45.448Z,315
2016-05-01T11:36:45.310Z,275
2016-05-01T11:37:45.296Z,260
2016-05-01T11:38:45.174Z,255
2016-05-01T11:39:45.256Z,250
2016-05-01T11:40:45.367Z,250
2016-05-01T11:41:45.370Z,245
2016-05-01T11:42:45.373Z,230
2016-05-01T11:43:45.344Z,230
2016-05-01T11:44:45.253Z,225
2016-05-01T11:45:45.427Z,230
2016-05-01T11:46:45.399Z,240
2016-05-01T11:47:45.355Z,250
2016-05-01T11:48:45.233Z,255
2016-05-01T11:49:45.328Z,255
2016-05-01T11:50:45.286Z,260
2016-05-01T11:51:45.475Z,275
2016-05-01T11:52:45.446Z,275
2016-05-01T11:53:45.262Z,280
2016-05-01T11:54:45.389Z,275
2016-05-01T11:55:45.252Z,265
2016-05-01T11:56:45.457Z,265
2016-05-01T11:57:45.475Z,290
2016-05-01T11:58:45.572Z,325
2016-05-01T11:59:45.402Z,350
2016-05-01T12:00:45.421Z,360
2016-05-01T12:01:46.158Z,340
2016-05-01T12:02:46.848Z,285
2016-05-01T12:03:46.960Z,280
2016-05-01T12:04:45.354Z,270
2016-05-01T12:05:46.731Z,285
2016-05-01T12:06:46.765Z,315
2016-05-01T12:07:46.189Z,340
2016-05-01T12:08:45.709Z,340
2016-05-01T12:09:45.883Z,365
2016-05-01T12:10:46.370Z,325
2016-05-01T12:11:46.170Z,340
2016-05-01T12:12:45.609Z,310
2016-05-01T12:13:45.784Z,295
2016-05-01T12:14:45.740Z,280
2016-05-01T12:15:46.273Z,260
2016-05-01T12:16:46.058Z,240
2016-05-01T12:17:46.200Z,225
2016-05-01T12:18:46.969Z,230
2016-05-01T12:19:45.347Z,240
2016-05-01T12:20:46.803Z,285
2016-05-01T12:21:47.103Z,290
2016-05-01T12:22:46.497Z,240
2016-05-01T12:23:46.936Z,220
2016-05-01T12:24:46.438Z,210
2016-05-01T12:25:45.285Z,210
2016-05-01T12:26:45.678Z,225
2016-05-01T12:27:46.525Z,225
2016-05-01T12:28:46.902Z,220
2016-05-01T12:29:45.421Z,210
2016-05-01T12:30:46.048Z,195
2016-05-01T12:31:45.489Z,190
2016-05-01T12:32:49.757Z,185
2016-05-01T12:33:47.588Z,180
2016-05-01T12:34:46.763Z,175
2016-05-01T12:35:48.406Z,175
2016-05-01T12:36:46.612Z,175
2016-05-01T12:37:46.973Z,165
2016-05-01T12:38:46.523Z,165
2016-05-01T12:39:47.713Z,170
2016-05-01T12:40:46.107Z,180
2016-05-01T12:41:46.328Z,195
2016-05-01T12:42:46.331Z,200
2016-05-01T12:43:45.584Z,215
2016-05-01T12:44:45.633Z,230
2016-05-01T12:45:47.401Z,260
2016-05-01T12:46:48.200Z,285
2016-05-01T12:47:46.672Z,305
2016-05-01T12:48:46.051Z,325
2016-05-01T12:49:45.975Z,330
2016-05-01T12:50:46.915Z,305
2016-05-01T12:51:47.245Z,265
2016-05-01T12:52:45.998Z,240
2016-05-01T12:53:46.250Z,215
2016-05-01T12:54:45.925Z,215
2016-05-01T12:55:46.522Z,210
2016-05-01T12:56:46.431Z,210
2016-05-01T12:57:46.387Z,215
2016-05-01T12:58:47.296Z,245
2016-05-01T12:59:47.532Z,270
2016-05-01T13:00:46.441Z,300
2016-05-01T13:01:45.866Z,300
2016-05-01T13:02:45.729Z,285
2016-05-01T13:03:46.232Z,245
2016-05-01T13:04:45.655Z,230
2016-05-01T13:05:46.174Z,210
2016-05-01T13:06:45.880Z,185
2016-05-01T13:07:46.101Z,160
2016-05-01T13:08:48.510Z,145
2016-05-01T13:09:45.825Z,135
2016-05-01T13:10:46.937Z,130
2016-05-01T13:11:47.065Z,130
2016-05-01T13:12:48.115Z,125
2016-05-01T13:13:46.148Z,130
2016-05-01T13:14:46.667Z,130
2016-05-01T13:15:46.309Z,150
2016-05-01T13:16:46.156Z,175
2016-05-01T13:17:47.597Z,195
2016-05-01T13:18:46.943Z,205
2016-05-01T13:19:46.461Z,215
2016-05-01T13:20:47.323Z,215
2016-05-01T13:21:46.076Z,210
2016-05-01T13:22:46.219Z,210
2016-05-01T13:23:46.378Z,215
2016-05-01T13:24:46.006Z,225
2016-05-01T13:25:47.666Z,240
2016-05-01T13:26:46.355Z,255
2016-05-01T13:27:47.577Z,265
2016-05-01T13:28:46.048Z,270
2016-05-01T13:29:46.191Z,270
2016-05-01T13:30:46.069Z,275
2016-05-01T13:31:46.244Z,255
2016-05-01T13:32:46.044Z,225
2016-05-01T13:33:45.796Z,190
2016-05-01T13:34:46.643Z,175
2016-05-01T13:35:46.021Z,160
2016-05-01T13:36:46.258Z,160
2016-05-01T13:37:45.931Z,165
2016-05-01T13:38:45.701Z,165
2016-05-01T13:39:48.046Z,160
2016-05-01T13:40:47.331Z,150
2016-05-01T13:41:46.239Z,150
2016-05-01T13:42:46.399Z,150
2016-05-01T13:43:46.760Z,150
2016-05-01T13:44:48.200Z,135
2016-05-01T13:45:46.031Z,125
2016-05-01T13:46:45.581Z,110
2016-05-01T13:47:45.850Z,100
2016-05-01T13:48:45.821Z,95
2016-05-01T13:49:45.731Z,105
2016-05-01T13:50:47.795Z,115
2016-05-01T13:51:45.876Z,115
2016-05-01T13:52:45.816Z,105
2016-05-01T13:53:45.850Z,100
2016-05-01T13:54:45.775Z,105
2016-05-01T13:55:45.730Z,105
2016-05-01T13:56:45.889Z,120
2016-05-01T13:57:45.922Z,140
2016-05-01T13:58:45.910Z,160
2016-05-01T13:59:45.850Z,175
2016-05-01T14:00:45.916Z,185
2016-05-01T14:01:45.919Z,180
2016-05-01T14:02:45.921Z,180
2016-05-01T14:03:45.736Z,180
2016-05-01T14:04:45.880Z,170
2016-05-01T14:05:46.491Z,160
2016-05-01T14:06:45.791Z,130